Malta, Idaho
Current Conditions -  °F | °C
As of 1:53 PM on Tuesday 21 Oct 2014 (Local Time) from KBYI Reporting Station
Light Rain Light Rain  
Wind Chill: 52°   Ceiling: Unl
Heat Index: 52°   Visibility: 10mi
Dew Point: 37°   Wind: 21mph
Humidity: 57%   Direction: 250°WSW
Pressure: 30.04"   Gusts: 36mph
Location:  42.31°N, 113.37°W
Report Text: KBYI 211953Z AUTO 25018G31KT 10SM -RA FEW045 SCT060 11/03 A3004 RMK AO2 PK WND 26034/1919 SLP147 P0000 T01110028
Loading
Personal Weather Stations






























Interactive Weather Map
Tropical Storm Tracking
New forecast layout! Learn more

10-Day Weather Forecast

Advertisements
Track Severe Weather on mobile